Aérodrome :
LOGIN :

S'inscrire | Disclaimer

   EN    FR    IT 

 










Légende :    VFR   VFR Marginal   IFR   IFR Intensif   IFR Très Intensif
Visi : 
Plafond : 
>= 8 km
>= 3000ft
5 à 8 km
1000 à 3000 ft
1500m à 5 km
500 à 1000 ft
800 à 1500m
200 à 500 ft
< 800m
< 200 ft
Symboles :   Orages  Brouillard  Fortes neiges  Fortes précipitations  Vent > 20 kt
SIGMETs :   Divers  Orages  Givrage  Turbulence  Onde Orograph.  Cendres Volcan.






- Altitude de l'aérodrome : 82 ft
- Code IATA : QIE


LFMI - Istres

DERNIER METAR :
  • 252000Z AUTO 35017KT CAVOK 23/08 Q1016 TEMPO 35025G35KT

METARs EXPIRÉS :
  • 251930Z AUTO 36017KT CAVOK 24/08 Q1016 TEMPO 35025G35KT
  • 251900Z AUTO 35014KT CAVOK 24/09 Q1015 TEMPO 35025G35KT
  • 251830Z AUTO 35015KT CAVOK 25/08 Q1015 TEMPO 35025G35KT
  • 251800Z AUTO 35016KT CAVOK 26/09 Q1015 TEMPO 35025G35KT
  • 251730Z AUTO 34018KT CAVOK 26/09 Q1014 TEMPO 35025G35KT

TAF TAF LFMI
Valide du 25 à 15h jusqu'au 26 à 15h UTC


251400Z 2515/2615 35015G25KT CAVOK TX30/2614Z TN19/2604Z
TEMPO 2518/2523 35025G35KT
BECMG 2607/2609 35012KT



MET'MAP, la Météo Aéronautique d'un coup d'oeil ! - Copyright ORBIFLY Décembre 2007 - Disclaimer

ORBIFLY MET'MAP TEAM :

Programmation & Développement : Alexandra Zaïnal
Sur une idée originale de : Baudouin d'Aumeries
Soutien technique & logistique : Manuel Goepfert
Assistance : Marc-Olivier Méhu

Contact : metmap@orbifly.com




SOURCES & CREDITS :

   NOAA